Time;durP1;ratioP1;P1;durP2;ratioP2;P2;SDS_P1;SDS_P2;PMS_P1;PMS_P2;Temp;Humidity;BMP_temperature;BMP_pressure;BME280_temperature;BME280_humidity;BME280_pressure;Samples;Min_cycle;Max_cycle;Signal;HPM_P1;HPM_P2
2023/12/17 00:01:21;;;;;;;25.10;10.38;;;;;;;11.44;66.73;102902.16;5018155;28;20811;-39
2023/12/17 00:03:46;;;;;;;19.70;9.68;;;;;;;11.43;66.85;102900.41;5018531;28;20029;-40
2023/12/17 00:06:12;;;;;;;22.70;9.63;;;;;;;11.48;66.78;102901.16;5020054;28;20068;-41
2023/12/17 00:08:37;;;;;;;24.73;10.38;;;;;;;11.21;67.67;102906.28;5010869;28;20045;-39
2023/12/17 00:11:03;;;;;;;22.60;11.10;;;;;;;11.16;67.71;102923.94;5018644;28;20052;-39
2023/12/17 00:13:28;;;;;;;24.48;10.35;;;;;;;11.38;67.45;102903.19;5022894;28;21014;-39
2023/12/17 00:15:54;;;;;;;17.27;7.82;;;;;;;10.97;68.64;102903.34;5017823;28;20049;-39
2023/12/17 00:18:20;;;;;;;19.60;8.60;;;;;;;10.91;68.39;102910.53;5022261;28;20494;-40
2023/12/17 00:20:45;;;;;;;25.10;9.70;;;;;;;11.54;66.83;102924.75;5010209;28;20511;-38
2023/12/17 00:23:11;;;;;;;25.95;9.88;;;;;;;11.15;67.75;102942.44;5018255;28;20037;-40
2023/12/17 00:25:36;;;;;;;20.38;10.20;;;;;;;11.21;67.60;102932.63;5014386;28;20045;-43
2023/12/17 00:28:02;;;;;;;25.23;10.20;;;;;;;11.18;68.07;102945.88;5023003;28;20664;-40
2023/12/17 00:30:27;;;;;;;19.60;8.90;;;;;;;10.96;68.31;102953.44;5020097;28;20029;-40
2023/12/17 00:32:53;;;;;;;23.98;9.20;;;;;;;11.32;67.64;102961.34;5024465;28;20033;-39
2023/12/17 00:35:18;;;;;;;21.77;8.57;;;;;;;11.18;67.26;102960.81;5019150;28;20052;-40
2023/12/17 00:37:44;;;;;;;17.27;8.55;;;;;;;11.33;67.71;102957.81;5023086;28;20033;-40
2023/12/17 00:40:09;;;;;;;24.25;8.95;;;;;;;11.39;67.52;102960.25;5021306;28;20037;-39
2023/12/17 00:42:35;;;;;;;14.95;7.60;;;;;;;10.95;67.82;102962.25;5022731;28;20046;-39
2023/12/17 00:45:00;;;;;;;24.42;10.23;;;;;;;11.13;68.07;102955.66;5010766;28;20068;-39
2023/12/17 00:47:26;;;;;;;30.92;11.05;;;;;;;11.40;67.60;102953.25;5022987;28;20480;-40
2023/12/17 00:49:54;;;;;;;20.20;10.38;;;;;;;11.43;67.11;102963.69;5019383;28;20484;-41
2023/12/17 00:52:21;;;;;;;18.20;8.65;;;;;;;11.68;66.69;102957.78;5019627;28;20041;-42
2023/12/17 00:54:47;;;;;;;20.27;9.15;;;;;;;11.32;68.01;102961.34;5021480;28;20056;-41
2023/12/17 00:57:13;;;;;;;15.05;7.28;;;;;;;11.49;67.42;102960.03;5020138;28;20503;-40
2023/12/17 00:59:38;;;;;;;21.92;10.35;;;;;;;11.58;66.86;102965.91;5020417;28;20054;-40
2023/12/17 01:02:04;;;;;;;23.35;9.38;;;;;;;11.42;67.73;102954.03;5016552;28;20021;-39
2023/12/17 01:04:29;;;;;;;24.88;10.75;;;;;;;11.61;67.25;102940.38;5021956;28;20064;-39
2023/12/17 01:06:55;;;;;;;19.98;9.88;;;;;;;11.13;67.95;102956.53;5022192;28;20040;-40
2023/12/17 01:09:21;;;;;;;23.98;9.88;;;;;;;11.30;67.76;102952.59;5022687;28;20497;-41
2023/12/17 01:11:46;;;;;;;21.65;8.52;;;;;;;11.23;67.92;102954.53;5018013;28;20029;-42
2023/12/17 01:14:12;;;;;;;22.95;10.35;;;;;;;11.42;67.83;102956.69;5028237;28;20037;-42
2023/12/17 01:16:38;;;;;;;28.58;10.15;;;;;;;11.78;66.69;102961.03;5027574;28;20025;-40
2023/12/17 01:19:04;;;;;;;27.35;9.48;;;;;;;11.57;67.17;102960.69;5013350;28;20045;-40
2023/12/17 01:21:30;;;;;;;27.00;10.63;;;;;;;11.64;67.17;102987.78;5018338;28;20044;-39
2023/12/17 01:23:57;;;;;;;21.48;10.40;;;;;;;11.83;66.39;102967.91;5027055;28;20029;-41
2023/12/17 01:26:23;;;;;;;24.10;9.30;;;;;;;11.61;67.00;102985.19;5025627;28;20091;-40
2023/12/17 01:28:54;;;;;;;22.77;9.52;;;;;;;11.78;66.95;102979.50;5026196;28;20059;-41
2023/12/17 01:31:20;;;;;;;24.92;8.85;;;;;;;11.28;68.44;102984.25;5025632;28;20041;-39
2023/12/17 01:33:45;;;;;;;27.02;9.43;;;;;;;11.46;67.55;102989.97;5024705;28;20040;-40
2023/12/17 01:36:11;;;;;;;20.95;9.32;;;;;;;11.61;67.12;102985.19;5027079;28;20081;-39
2023/12/17 01:38:36;;;;;;;23.60;10.07;;;;;;;11.66;66.76;102983.31;5018939;28;20040;-40
2023/12/17 01:41:02;;;;;;;24.67;9.32;;;;;;;11.62;67.24;102984.31;5025342;28;20025;-40
2023/12/17 01:43:28;;;;;;;21.17;9.45;;;;;;;11.66;67.20;102976.25;5031072;28;20787;-40
2023/12/17 01:45:54;;;;;;;20.20;9.38;;;;;;;11.75;66.88;102985.69;5027306;28;20038;-40
2023/12/17 01:48:24;;;;;;;22.63;9.95;;;;;;;11.54;67.44;102984.50;5029389;28;20037;-41
2023/12/17 01:50:50;;;;;;;19.83;9.30;;;;;;;11.63;67.38;102978.13;5022478;28;20048;-40
2023/12/17 01:53:17;;;;;;;19.15;9.25;;;;;;;11.86;66.69;102977.50;5031331;28;20022;-41
2023/12/17 01:55:44;;;;;;;23.33;10.52;;;;;;;11.40;67.85;102976.97;5028947;28;20561;-40
2023/12/17 01:58:10;;;;;;;27.45;9.43;;;;;;;11.98;66.50;102981.59;5025749;28;20065;-40
2023/12/17 02:00:37;;;;;;;25.08;10.10;;;;;;;11.80;66.85;102983.81;5025359;28;20506;-38
2023/12/17 02:03:05;;;;;;;18.23;9.15;;;;;;;12.18;65.68;102984.53;5028453;28;20037;-44
2023/12/17 02:05:35;;;;;;;19.77;9.45;;;;;;;11.74;66.97;102983.97;5025123;28;20036;-42
2023/12/17 02:08:01;;;;;;;24.85;9.13;;;;;;;11.67;67.23;102982.41;5023476;28;20032;-39
2023/12/17 02:10:27;;;;;;;28.05;10.38;;;;;;;11.77;66.82;102968.06;5026715;28;20029;-40
2023/12/17 02:12:53;;;;;;;18.77;8.98;;;;;;;11.96;66.54;102988.69;5021045;28;20055;-42
2023/12/17 02:15:18;;;;;;;19.65;9.60;;;;;;;11.58;67.62;102979.09;5026742;28;20558;-43
2023/12/17 02:17:44;;;;;;;15.13;7.70;;;;;;;11.71;67.16;102986.72;5024178;28;20029;-40
2023/12/17 02:20:10;;;;;;;24.15;10.68;;;;;;;11.99;66.54;102967.53;5022672;28;20407;-43
2023/12/17 02:22:38;;;;;;;19.23;9.65;;;;;;;12.03;66.36;102962.09;5026913;28;20045;-40
2023/12/17 02:25:04;;;;;;;22.17;9.70;;;;;;;11.98;66.41;102960.47;5022596;28;20026;-41
2023/12/17 02:27:29;;;;;;;25.23;9.40;;;;;;;11.90;66.90;102964.19;5027183;28;20038;-44
2023/12/17 02:29:55;;;;;;;21.40;9.52;;;;;;;12.16;66.09;102965.28;5022438;28;20056;-38
2023/12/17 02:32:22;;;;;;;25.30;11.20;;;;;;;11.85;66.98;102967.84;5020996;28;20111;-39
2023/12/17 02:34:48;;;;;;;24.10;10.65;;;;;;;11.71;67.19;102957.72;5024351;28;20506;-40
2023/12/17 02:37:15;;;;;;;25.65;9.63;;;;;;;11.76;67.44;102963.69;5023036;28;20029;-39
2023/12/17 02:39:40;;;;;;;19.02;8.77;;;;;;;11.87;66.92;102976.59;5027991;28;20033;-40
2023/12/17 02:42:06;;;;;;;26.58;10.85;;;;;;;11.73;67.12;102983.13;5020698;28;20159;-44
2023/12/17 02:44:31;;;;;;;23.88;8.68;;;;;;;11.72;67.63;102976.13;5021131;28;20026;-38
2023/12/17 02:46:58;;;;;;;20.40;8.73;;;;;;;11.86;66.93;102972.22;5021178;28;20084;-39
2023/12/17 02:49:24;;;;;;;25.85;9.85;;;;;;;11.84;67.04;102972.28;5026296;28;20203;-38
2023/12/17 02:51:50;;;;;;;24.95;9.18;;;;;;;12.24;65.94;102985.28;5025052;28;20026;-45
2023/12/17 02:54:17;;;;;;;23.52;9.35;;;;;;;11.88;67.19;102981.81;5024419;28;20036;-39
2023/12/17 02:56:43;;;;;;;22.13;9.90;;;;;;;12.32;66.10;102980.66;5024957;28;20036;-40
2023/12/17 02:59:09;;;;;;;24.45;10.00;;;;;;;12.15;66.31;102983.78;5026945;28;20025;-38
2023/12/17 03:01:34;;;;;;;24.23;9.98;;;;;;;12.22;66.25;102984.47;5008218;28;20025;-41
2023/12/17 03:04:04;;;;;;;21.02;9.45;;;;;;;12.29;65.75;102986.03;5024177;28;20026;-41
2023/12/17 03:06:29;;;;;;;18.13;8.93;;;;;;;12.15;66.43;102984.66;5023010;28;20143;-52
2023/12/17 03:08:55;;;;;;;23.58;10.52;;;;;;;12.14;66.61;102990.84;5028296;28;20988;-41
2023/12/17 03:11:20;;;;;;;23.60;10.75;;;;;;;12.11;66.71;102996.19;5025747;28;20419;-38
2023/12/17 03:13:46;;;;;;;22.83;8.98;;;;;;;11.86;67.38;102993.34;5026186;28;20029;-40
2023/12/17 03:16:11;;;;;;;26.05;10.23;;;;;;;12.06;67.16;102995.44;5023169;28;20383;-40
2023/12/17 03:18:37;;;;;;;19.98;9.00;;;;;;;12.20;66.73;102997.72;5020155;28;20029;-38
2023/12/17 03:21:05;;;;;;;20.02;8.82;;;;;;;12.20;66.49;102998.56;5022609;28;20048;-44
2023/12/17 03:23:31;;;;;;;30.80;9.98;;;;;;;12.00;67.21;102990.38;5024078;28;20524;-38
2023/12/17 03:25:57;;;;;;;23.40;9.45;;;;;;;11.75;67.46;102993.63;5021747;28;20045;-37
2023/12/17 03:28:22;;;;;;;21.35;9.43;;;;;;;12.10;66.72;102978.63;5024237;28;20143;-40
2023/12/17 03:30:48;;;;;;;23.83;10.05;;;;;;;12.13;66.85;102975.91;5019172;28;20116;-40
2023/12/17 03:33:13;;;;;;;19.38;8.15;;;;;;;12.32;66.24;102981.50;5024583;28;20071;-41
2023/12/17 03:35:39;;;;;;;25.40;8.15;;;;;;;12.28;66.09;102971.09;5020815;28;20033;-41
2023/12/17 03:38:04;;;;;;;18.63;7.60;;;;;;;12.37;65.94;102965.53;5012749;28;20029;-40
2023/12/17 03:40:30;;;;;;;18.60;8.48;;;;;;;12.28;66.35;102960.53;5021657;28;20483;-41
2023/12/17 03:42:56;;;;;;;20.83;9.52;;;;;;;12.25;66.09;102963.25;5019837;28;20079;-40
2023/12/17 03:45:22;;;;;;;16.88;8.75;;;;;;;12.22;65.48;102961.59;5023998;28;20103;-39
2023/12/17 03:47:48;;;;;;;21.27;9.70;;;;;;;12.28;66.08;102964.03;5027954;28;20451;-42
2023/12/17 03:50:18;;;;;;;19.65;8.07;;;;;;;12.37;65.91;102967.31;5024970;28;20056;-40
2023/12/17 03:52:47;;;;;;;21.90;9.63;;;;;;;12.43;65.56;102978.56;5020883;28;20037;-39
2023/12/17 03:55:14;;;;;;;17.63;8.73;;;;;;;12.46;65.31;102978.47;5021220;28;20072;-40
2023/12/17 03:57:39;;;;;;;17.50;8.30;;;;;;;12.28;65.65;102979.88;5023906;28;20037;-47
2023/12/17 04:00:06;;;;;;;21.98;8.93;;;;;;;12.34;65.76;102978.81;5023323;28;20045;-39
2023/12/17 04:02:32;;;;;;;21.30;9.80;;;;;;;12.32;65.72;102976.22;5018624;28;20017;-38
2023/12/17 04:04:58;;;;;;;19.40;8.65;;;;;;;12.22;65.72;102985.34;5027803;28;20671;-37
2023/12/17 04:07:26;;;;;;;19.25;8.88;;;;;;;12.37;65.54;102977.88;5019143;28;20050;-39
2023/12/17 04:09:52;;;;;;;17.20;7.70;;;;;;;12.31;65.67;102974.50;5024769;28;20029;-37
2023/12/17 04:12:17;;;;;;;19.23;8.40;;;;;;;12.34;65.32;102973.53;5018320;28;20087;-38
2023/12/17 04:14:43;;;;;;;20.70;8.10;;;;;;;12.28;65.35;102977.22;5019221;28;20456;-39
2023/12/17 04:17:08;;;;;;;15.27;7.82;;;;;;;12.17;65.96;102971.41;5017084;28;20022;-41
2023/12/17 04:19:33;;;;;;;17.75;8.68;;;;;;;12.17;65.38;102969.66;5025018;28;20416;-41
2023/12/17 04:21:59;;;;;;;18.45;8.10;;;;;;;12.13;65.67;102962.72;5022164;28;22283;-38
2023/12/17 04:24:24;;;;;;;16.10;7.60;;;;;;;12.25;65.54;102972.03;5023151;28;20116;-39
2023/12/17 04:26:50;;;;;;;18.60;7.70;;;;;;;12.39;65.47;102963.72;5017549;28;20080;-43
2023/12/17 04:29:16;;;;;;;17.20;8.75;;;;;;;12.22;66.09;102960.69;5020323;28;20040;-39
2023/12/17 04:31:41;;;;;;;19.23;8.88;;;;;;;12.40;65.19;102952.25;5016684;28;20658;-42
2023/12/17 04:34:08;;;;;;;22.42;8.57;;;;;;;12.14;66.13;102956.53;5013772;28;20030;-40
2023/12/17 04:36:34;;;;;;;18.65;8.30;;;;;;;12.18;66.04;102952.88;5020187;28;20580;-39
2023/12/17 04:39:00;;;;;;;16.38;8.50;;;;;;;12.41;64.93;102950.44;5013204;28;20053;-37
2023/12/17 04:41:25;;;;;;;17.80;7.57;;;;;;;12.23;65.37;102950.13;5023016;28;20025;-39
2023/12/17 04:43:51;;;;;;;17.35;7.90;;;;;;;12.14;65.90;102950.38;5026361;28;20021;-41
2023/12/17 04:46:16;;;;;;;19.05;7.95;;;;;;;12.05;66.25;102956.78;5021151;28;20030;-43
2023/12/17 04:48:42;;;;;;;19.48;6.57;;;;;;;12.02;66.23;102962.16;5026030;28;20113;-38
2023/12/17 04:51:07;;;;;;;17.80;7.07;;;;;;;12.25;65.85;102955.34;5009033;28;20105;-42
2023/12/17 04:53:33;;;;;;;16.20;7.32;;;;;;;12.31;65.35;102958.66;5013322;28;20037;-40
2023/12/17 04:55:58;;;;;;;14.32;7.07;;;;;;;12.07;65.98;102949.69;5025109;28;20025;-39
2023/12/17 04:58:25;;;;;;;16.75;7.75;;;;;;;12.16;65.79;102945.91;5031424;28;20499;-42
2023/12/17 05:00:50;;;;;;;19.63;8.13;;;;;;;12.09;65.85;102947.03;5023416;28;20087;-40
2023/12/17 05:03:16;;;;;;;15.75;8.40;;;;;;;11.99;66.01;102944.63;5028218;28;20032;-41
2023/12/17 05:05:41;;;;;;;17.60;7.40;;;;;;;12.28;64.83;102937.63;5029198;28;20041;-40
2023/12/17 05:08:07;;;;;;;17.65;7.28;;;;;;;12.41;64.94;102932.84;5027388;28;20029;-42
2023/12/17 05:10:32;;;;;;;17.60;7.57;;;;;;;12.34;65.09;102936.56;5020482;28;20389;-40
2023/12/17 05:12:57;;;;;;;15.23;7.22;;;;;;;12.23;65.19;102947.47;5024939;28;20032;-40
2023/12/17 05:15:23;;;;;;;14.85;7.65;;;;;;;11.92;66.27;102940.41;5027253;28;20029;-40
2023/12/17 05:17:48;;;;;;;21.10;8.23;;;;;;;12.28;65.57;102953.47;5023392;28;20140;-40
2023/12/17 05:20:14;;;;;;;16.17;7.35;;;;;;;12.34;65.24;102944.50;5024185;28;20030;-39
2023/12/17 05:22:39;;;;;;;18.02;7.93;;;;;;;12.36;65.07;102934.75;5027590;28;20034;-39
2023/12/17 05:25:05;;;;;;;11.95;5.45;;;;;;;12.36;65.13;102945.31;5021014;28;20631;-39
2023/12/17 05:27:31;;;;;;;17.33;7.60;;;;;;;12.12;65.15;102945.16;5023654;28;20408;-39
2023/12/17 05:29:56;;;;;;;16.85;7.57;;;;;;;12.30;65.30;102948.16;5025476;28;20048;-40
2023/12/17 05:32:22;;;;;;;18.75;7.75;;;;;;;12.44;65.07;102934.53;5025913;28;20384;-41
2023/12/17 05:34:47;;;;;;;18.80;8.95;;;;;;;12.46;64.90;102945.91;5018837;28;20037;-42
2023/12/17 05:37:13;;;;;;;19.63;7.55;;;;;;;12.27;65.34;102956.16;5038825;28;20116;-41
2023/12/17 05:39:38;;;;;;;20.42;10.40;;;;;;;12.43;65.05;102953.91;5019552;28;20170;-41
2023/12/17 05:42:04;;;;;;;18.70;8.32;;;;;;;12.54;64.93;102949.19;5024899;28;20041;-38
2023/12/17 05:44:29;;;;;;;17.17;8.15;;;;;;;12.33;65.16;102953.31;5025342;28;20029;-40
2023/12/17 05:46:55;;;;;;;18.30;8.38;;;;;;;12.26;65.45;102954.44;5026269;28;20129;-41
2023/12/17 05:49:20;;;;;;;14.02;6.20;;;;;;;12.62;64.59;102957.72;5026966;28;20060;-39
2023/12/17 05:51:46;;;;;;;17.20;8.68;;;;;;;12.24;65.18;102948.31;5013840;28;20033;-40
2023/12/17 05:54:11;;;;;;;21.88;9.02;;;;;;;12.51;64.34;102949.28;5023072;28;20026;-40
2023/12/17 05:56:41;;;;;;;17.45;8.07;;;;;;;12.75;64.12;102952.94;5022725;28;20033;-40
2023/12/17 05:59:07;;;;;;;16.55;7.47;;;;;;;12.28;65.24;102952.63;5025308;28;20488;-38
2023/12/17 06:01:33;;;;;;;21.17;8.65;;;;;;;12.57;64.89;102948.22;5027096;28;20035;-39
2023/12/17 06:03:59;;;;;;;9.45;4.45;;;;;;;12.54;64.61;102948.31;5022988;28;20025;-41
2023/12/17 06:06:24;;;;;;;20.02;8.15;;;;;;;12.54;64.68;102948.31;5014830;28;20042;-40
2023/12/17 06:08:50;;;;;;;19.13;7.78;;;;;;;12.66;64.49;102955.84;5022891;28;20094;-40
2023/12/17 06:11:19;;;;;;;17.17;8.07;;;;;;;12.37;65.11;102956.75;5015376;28;20404;-41
2023/12/17 06:13:45;;;;;;;19.75;8.82;;;;;;;12.54;64.82;102948.31;5024976;28;20063;-40
2023/12/17 06:16:11;;;;;;;24.58;9.82;;;;;;;12.40;64.78;102944.31;5017387;28;20025;-39
2023/12/17 06:18:38;;;;;;;16.75;8.10;;;;;;;12.59;64.75;102959.63;5022517;28;20025;-39
2023/12/17 06:21:04;;;;;;;23.60;10.20;;;;;;;12.39;64.69;102961.06;5024346;28;20689;-40
2023/12/17 06:23:31;;;;;;;20.45;9.10;;;;;;;12.54;64.48;102958.88;5024186;28;20090;-40
2023/12/17 06:25:56;;;;;;;20.88;9.05;;;;;;;12.60;64.42;102953.41;5024256;28;20531;-40
2023/12/17 06:28:24;;;;;;;18.25;8.38;;;;;;;12.43;64.39;102952.16;5021756;28;20044;-40
2023/12/17 06:30:50;;;;;;;19.50;8.82;;;;;;;12.62;64.21;102952.44;5021753;28;20480;-40
2023/12/17 06:33:15;;;;;;;17.52;8.38;;;;;;;12.38;64.81;102961.97;5027861;28;20095;-40
2023/12/17 06:35:41;;;;;;;19.92;8.13;;;;;;;12.60;64.34;102963.97;5025891;28;20042;-42
2023/12/17 06:38:06;;;;;;;17.60;8.20;;;;;;;12.78;63.56;102958.09;5020980;28;20128;-40
2023/12/17 06:40:32;;;;;;;20.58;8.65;;;;;;;12.59;64.34;102967.53;5022235;28;20029;-39
2023/12/17 06:42:57;;;;;;;15.35;7.80;;;;;;;12.73;63.85;102969.72;5024270;28;20039;-41
2023/12/17 06:45:23;;;;;;;18.08;7.65;;;;;;;12.92;62.97;102975.31;5018255;28;20032;-41
2023/12/17 06:47:49;;;;;;;17.25;7.60;;;;;;;12.65;63.19;102981.41;5016037;28;20492;-41
2023/12/17 06:50:15;;;;;;;16.17;8.13;;;;;;;12.72;63.40;102983.84;5023794;28;20044;-40
2023/12/17 06:52:41;;;;;;;16.85;7.55;;;;;;;12.86;63.08;102981.63;5026616;28;20029;-40
2023/12/17 06:55:07;;;;;;;15.85;7.45;;;;;;;12.99;62.83;102982.13;5021134;28;20032;-40
2023/12/17 06:57:32;;;;;;;7.72;4.05;;;;;;;12.90;62.84;102982.44;5026377;28;20034;-40
2023/12/17 06:59:58;;;;;;;17.50;8.35;;;;;;;13.02;62.67;102981.16;5023035;28;20095;-42
2023/12/17 07:02:23;;;;;;;22.83;8.38;;;;;;;13.09;62.30;102972.97;5026058;28;20080;-40
2023/12/17 07:04:49;;;;;;;16.10;8.18;;;;;;;12.76;63.26;102980.22;5023060;28;20037;-40
2023/12/17 07:07:14;;;;;;;18.15;7.68;;;;;;;12.58;63.54;102973.72;5024360;28;20505;-43
2023/12/17 07:09:40;;;;;;;16.20;7.82;;;;;;;12.73;63.41;102962.69;5015363;28;20048;-40
2023/12/17 07:12:06;;;;;;;17.73;7.85;;;;;;;12.54;63.74;102958.88;5021910;28;20765;-40
2023/12/17 07:14:32;;;;;;;18.90;8.38;;;;;;;12.51;63.78;102954.56;5025289;28;20029;-40
2023/12/17 07:16:57;;;;;;;17.40;7.78;;;;;;;12.76;63.16;102956.44;5024240;28;20045;-39
2023/12/17 07:19:23;;;;;;;17.98;9.13;;;;;;;12.81;63.00;102958.00;5021749;28;20064;-42
2023/12/17 07:21:48;;;;;;;21.08;9.82;;;;;;;12.79;62.98;102958.97;5018593;28;20033;-43
2023/12/17 07:24:13;;;;;;;16.17;9.05;;;;;;;13.05;62.24;102954.63;5026612;28;20026;-39
2023/12/17 07:26:39;;;;;;;18.98;8.93;;;;;;;12.75;62.74;102963.50;5019383;28;20117;-40
2023/12/17 07:29:04;;;;;;;20.15;9.15;;;;;;;12.87;62.91;102971.94;5013636;28;20111;-43
2023/12/17 07:31:30;;;;;;;19.70;7.75;;;;;;;12.86;62.40;102981.63;5010460;28;20146;-44
2023/12/17 07:33:55;;;;;;;19.35;8.82;;;;;;;13.02;62.31;102979.38;5019247;28;20026;-38
2023/12/17 07:36:21;;;;;;;18.33;8.45;;;;;;;12.71;62.99;102974.19;5027757;28;20761;-41
2023/12/17 07:38:47;;;;;;;15.68;7.63;;;;;;;12.77;63.00;102982.81;5009424;28;20037;-41
2023/12/17 07:41:12;;;;;;;16.00;7.93;;;;;;;12.80;62.53;102982.69;5025799;28;20387;-40
2023/12/17 07:43:38;;;;;;;20.60;8.43;;;;;;;12.99;62.20;102968.91;5026158;28;20480;-41
2023/12/17 07:46:03;;;;;;;18.90;7.32;;;;;;;12.95;62.45;102967.28;5019187;28;20037;-40
2023/12/17 07:48:29;;;;;;;18.25;7.55;;;;;;;13.07;62.36;102964.25;5022767;28;20048;-43
2023/12/17 07:50:55;;;;;;;15.73;7.57;;;;;;;12.99;62.36;102970.69;5016333;28;20037;-39
2023/12/17 07:53:21;;;;;;;16.00;7.80;;;;;;;12.88;62.66;102968.41;5020761;28;20049;-39
2023/12/17 07:55:47;;;;;;;17.85;7.22;;;;;;;13.03;62.12;102967.03;5013494;28;20140;-40
2023/12/17 07:58:14;;;;;;;16.10;7.72;;;;;;;12.92;62.34;102967.41;5017947;28;20646;-41
2023/12/17 08:00:39;;;;;;;15.80;8.13;;;;;;;12.98;62.34;102969.81;5021696;28;20033;-39
2023/12/17 08:03:05;;;;;;;13.48;6.45;;;;;;;12.84;62.49;102980.84;5026234;28;20092;-40
2023/12/17 08:05:30;;;;;;;17.35;7.93;;;;;;;12.85;62.27;102981.69;5023470;28;20069;-45
2023/12/17 08:07:56;;;;;;;16.10;6.65;;;;;;;12.96;62.44;102980.44;5022515;28;20427;-47
2023/12/17 08:10:21;;;;;;;15.80;8.00;;;;;;;12.76;62.76;102977.56;5027530;28;20049;-38
2023/12/17 08:12:46;;;;;;;19.77;10.18;;;;;;;12.99;62.13;102976.84;5020498;28;20034;-41
2023/12/17 08:15:12;;;;;;;17.67;8.63;;;;;;;13.06;62.35;102981.03;5021613;28;20025;-44
2023/12/17 08:17:38;;;;;;;15.15;7.50;;;;;;;12.95;62.54;102976.06;5018714;28;20085;-40
2023/12/17 08:20:03;;;;;;;18.98;8.13;;;;;;;12.99;62.56;102976.84;5023116;28;20491;-38
2023/12/17 08:22:29;;;;;;;18.60;7.28;;;;;;;12.88;62.72;102968.41;5023461;28;20484;-44
2023/12/17 08:24:54;;;;;;;17.10;7.20;;;;;;;12.87;62.67;102971.94;5027093;28;20429;-40
2023/12/17 08:27:20;;;;;;;16.15;8.27;;;;;;;12.96;62.56;102971.63;5025787;28;20042;-40
2023/12/17 08:29:47;;;;;;;11.15;7.05;;;;;;;12.72;63.20;102981.22;5029416;28;20055;-38
2023/12/17 08:32:14;;;;;;;13.02;6.45;;;;;;;12.80;63.28;102972.13;5024226;28;20045;-45
2023/12/17 08:34:40;;;;;;;16.92;6.80;;;;;;;12.75;63.15;102978.47;5021144;28;20112;-37
2023/12/17 08:37:05;;;;;;;16.70;7.75;;;;;;;12.80;63.03;102969.50;5016418;28;20263;-38
2023/12/17 08:39:31;;;;;;;18.30;7.45;;;;;;;12.80;63.29;102977.41;5021906;28;20036;-44
2023/12/17 08:41:57;;;;;;;15.95;7.00;;;;;;;12.83;63.03;102965.03;5026100;28;20032;-39
2023/12/17 08:44:25;;;;;;;12.52;6.78;;;;;;;12.90;62.69;102971.84;5029783;28;20022;-40
2023/12/17 08:46:51;;;;;;;14.07;7.45;;;;;;;12.85;62.60;102968.50;5025606;28;20591;-42
2023/12/17 08:49:16;;;;;;;14.82;7.10;;;;;;;12.81;62.54;102983.56;5021241;28;20069;-37
2023/12/17 08:51:42;;;;;;;14.75;7.50;;;;;;;12.95;62.53;102977.84;5022037;28;20107;-38
2023/12/17 08:54:12;;;;;;;15.50;7.30;;;;;;;12.97;62.30;102986.59;5014394;28;20022;-44
2023/12/17 08:56:38;;;;;;;14.65;7.47;;;;;;;12.73;63.16;102973.25;5026469;28;20026;-40
2023/12/17 08:59:03;;;;;;;21.13;8.38;;;;;;;12.85;62.67;102994.91;5022321;28;20068;-37
2023/12/17 09:01:29;;;;;;;15.60;7.68;;;;;;;12.76;63.21;102994.31;5021047;28;20048;-41
2023/12/17 09:03:54;;;;;;;19.35;6.75;;;;;;;12.58;63.42;102992.22;5021721;28;20045;-42
2023/12/17 09:06:19;;;;;;;16.05;8.02;;;;;;;12.82;62.79;102980.03;5021421;28;20033;-41
2023/12/17 09:08:45;;;;;;;16.38;7.75;;;;;;;12.55;63.30;102992.31;5024468;28;20472;-39
2023/12/17 09:11:11;;;;;;;13.27;6.75;;;;;;;12.79;63.01;102986.25;5007607;28;21118;-43
2023/12/17 09:13:37;;;;;;;16.27;8.05;;;;;;;12.96;62.50;102982.22;5007921;28;20033;-39
2023/12/17 09:16:03;;;;;;;13.75;6.65;;;;;;;13.06;62.11;102975.75;5021342;28;20067;-39
2023/12/17 09:18:29;;;;;;;14.77;7.53;;;;;;;12.95;61.77;102975.19;5023405;28;20021;-39
2023/12/17 09:20:54;;;;;;;12.25;6.07;;;;;;;13.20;61.64;102964.69;5022459;28;20042;-43
2023/12/17 09:23:20;;;;;;;15.45;7.25;;;;;;;12.86;61.98;102980.78;5024426;28;20040;-38
2023/12/17 09:25:46;;;;;;;13.38;7.05;;;;;;;12.72;62.51;102979.44;5019167;28;20034;-37
2023/12/17 09:28:11;;;;;;;13.93;7.10;;;;;;;12.67;62.92;102994.56;4955786;28;1490199;-40
2023/12/17 09:30:37;;;;;;;10.57;6.13;;;;;;;12.65;62.47;103005.19;5014976;28;20042;-37
2023/12/17 09:33:02;;;;;;;18.45;6.93;;;;;;;12.95;62.03;102989.28;5018824;28;20108;-37
2023/12/17 09:35:28;;;;;;;7.05;3.92;;;;;;;13.18;61.23;102976.25;5016088;28;20036;-39
2023/12/17 09:37:53;;;;;;;19.15;7.30;;;;;;;13.22;61.34;102972.59;5026241;28;20423;-38
2023/12/17 09:40:19;;;;;;;12.68;5.78;;;;;;;12.90;62.09;102972.72;5023222;28;20064;-36
2023/12/17 09:42:45;;;;;;;11.48;5.75;;;;;;;12.99;61.71;102974.19;5023812;28;20029;-44
2023/12/17 09:45:14;;;;;;;13.90;6.97;;;;;;;13.19;61.23;102970.03;5008904;28;20455;-41
2023/12/17 09:47:43;;;;;;;12.40;6.35;;;;;;;13.06;61.40;102956.34;5012656;28;20033;-40
2023/12/17 09:50:10;;;;;;;9.27;6.03;;;;;;;13.13;61.00;102951.72;5017877;28;20484;-39
2023/12/17 09:52:40;;;;;;;14.43;6.82;;;;;;;13.09;61.20;102961.53;5015101;28;20438;-38
2023/12/17 09:55:14;;;;;;;13.10;7.30;;;;;;;13.22;61.01;102956.72;5023309;28;20095;-40
2023/12/17 09:57:54;;;;;;;10.35;5.45;;;;;;;13.17;60.94;102959.50;5027193;28;20388;-39
2023/12/17 10:00:20;;;;;;;13.50;6.10;;;;;;;13.27;60.53;102954.78;5024898;28;20029;-39
2023/12/17 10:02:45;;;;;;;13.45;7.22;;;;;;;13.26;60.74;102968.91;5027442;28;20501;-39
2023/12/17 10:05:11;;;;;;;14.35;6.07;;;;;;;13.14;60.52;102958.75;5027118;28;20048;-40
2023/12/17 10:07:37;;;;;;;11.82;5.05;;;;;;;13.18;61.07;102961.22;5024841;28;20036;-39
2023/12/17 10:10:07;;;;;;;17.63;7.60;;;;;;;13.36;60.79;102943.91;5017530;28;20037;-39
2023/12/17 10:12:32;;;;;;;9.98;5.18;;;;;;;13.04;60.76;102948.50;5027836;28;20436;-38
2023/12/17 10:14:58;;;;;;;17.83;6.80;;;;;;;13.13;60.86;102935.88;5027980;28;20530;-39
2023/12/17 10:17:23;;;;;;;18.00;8.85;;;;;;;13.45;60.12;102936.59;5028008;28;20035;-40
2023/12/17 10:19:52;;;;;;;12.43;6.45;;;;;;;13.17;60.71;102940.16;5028103;28;20102;-40
2023/12/17 10:22:19;;;;;;;13.10;5.68;;;;;;;12.94;61.23;102937.34;5029088;28;20029;-39
2023/12/17 10:24:45;;;;;;;12.68;5.40;;;;;;;13.57;60.23;102936.16;5023988;28;20120;-41
2023/12/17 10:27:21;;;;;;;10.70;6.00;;;;;;;13.77;59.35;102930.13;5026308;28;20033;-40
2023/12/17 10:29:49;;;;;;;11.32;5.97;;;;;;;13.72;59.37;102919.72;5018205;28;20037;-42
2023/12/17 10:32:20;;;;;;;13.00;5.90;;;;;;;13.61;59.47;102927.19;5022185;28;20476;-40
2023/12/17 10:34:46;;;;;;;12.40;6.15;;;;;;;13.64;59.67;102927.09;5025354;28;20638;-37
2023/12/17 10:37:15;;;;;;;13.15;5.95;;;;;;;13.60;59.82;102917.53;5019725;28;20037;-42
2023/12/17 10:39:41;;;;;;;10.05;5.78;;;;;;;13.55;60.13;102923.00;5021938;28;20071;-41
2023/12/17 10:42:08;;;;;;;9.98;6.05;;;;;;;13.36;60.92;102917.47;5026115;28;20116;-39
2023/12/17 10:44:35;;;;;;;10.50;5.45;;;;;;;13.47;60.15;102905.66;5023630;28;20059;-40
2023/12/17 10:47:03;;;;;;;13.98;7.18;;;;;;;13.44;59.87;102903.13;5022056;28;20626;-38
2023/12/17 10:49:30;;;;;;;12.93;6.60;;;;;;;13.32;60.08;102892.03;5008499;28;20486;-39
2023/12/17 10:51:56;;;;;;;9.25;4.95;;;;;;;13.38;60.33;102885.66;5001358;28;20120;-43
2023/12/17 10:54:22;;;;;;;11.23;5.05;;;;;;;13.16;60.30;102896.13;5013427;28;20021;-38
2023/12/17 10:56:53;;;;;;;10.57;4.85;;;;;;;13.23;60.30;102873.84;5013458;28;20535;-39
2023/12/17 10:59:23;;;;;;;9.73;5.57;;;;;;;13.30;60.13;102869.22;5019231;28;20048;-41
2023/12/17 11:01:52;;;;;;;12.23;5.78;;;;;;;13.22;60.17;102877.41;5006945;28;20108;-39
2023/12/17 11:04:18;;;;;;;11.00;5.93;;;;;;;13.41;59.67;102869.72;5016590;28;20025;-41
2023/12/17 11:06:44;;;;;;;11.15;5.90;;;;;;;13.30;59.86;102885.09;5019285;28;20502;-40
2023/12/17 11:09:10;;;;;;;14.30;5.80;;;;;;;13.61;60.03;102863.72;5016801;28;20061;-41
2023/12/17 11:11:35;;;;;;;10.60;4.13;;;;;;;13.38;59.47;102878.59;5003742;28;20053;-43